Lederach, PA (19450)

10:34 PM EDT on March 26, 2015 (GMT -0400)
Harleysville/Skippack | | Change Station
CLOSE
Current Station
Personal Weather Station
Location: Harleysville, PA
Elevation: 320 ft
Nearby Weather Stations

Elev 320 ft 40.24 °N, 75.40 °W | Updated 16 seconds ago

Rain
Rain
48.0 °F
Feels Like 48 °F
N
2.0
Wind Variable Wind from NNW
Gusts 6.0 mph

Today
High -- | Low -- °F
--% Chance of Precip.
Yesterday
High -- | Low -- °F
Precip. -- in
6:55 AM 7:19 PM
Waxing Crescent, 48% visible
Pressure 29.70 in
Visibility 10.0 miles
Clouds Mostly Cloudy 1700 ft
Overcast 6000 ft
Windchill 48 °F
Dew Point 46 °F
Humidity 92%
Rainfall 0.49 in
Snow Depth Not available.
UV 0.0 out of 12
Pollen 6.50 out of 12
Air Quality Not available.
Flu Activity Not available.
METAR KPTW 270154Z AUTO 30004KT 10SM BKN017 OVC060 11/11 A2970 RMK AO2 RAE47 SLP055 P0006 T01060106

More Conditions Fewer Conditions

Pressure 29.70 in
Visibility 10.0 miles
Clouds Mostly Cloudy 1700 ft
Overcast 6000 ft
Windchill 48 °F
Dew Point 46 °F
Humidity 92%
Rainfall 0.49 in
Snow Depth Not available.
UV 0.0 out of 12
Pollen 6.50 out of 12
Air Quality Not available.
Flu Activity Not available.
METAR KPTW 270154Z AUTO 30004KT 10SM BKN017 OVC060 11/11 A2970 RMK AO2 RAE47 SLP055 P0006 T01060106

More Conditions Fewer Conditions

Nowcast | as of 9:42 PM EDT on March 26, 2015

Showers will continue behind the cold front through late this evening. A period of moderate to heavy rainfall is possible with some showers. A period of moderate to heavy rainfall is possible with some showers which may lead to ponding on roadways and poor drainage areas.

×

10-Day Weather Forecast

Almanac

Astronomy

Mar. 26, 2015 Rise Set
Actual Time
Civil Twilight
Nautical Twilight
Astronomical Twilight
Moon
Length of Visible Light
Length of Day
Tomorrow will be .
, % of the Moon is Illuminated

Today's Extremes

State Highs State Lows

Community

WunderPhotos

Upload Photos

1,808,689 photos uploaded!

WunderBlogs® & News

Nearby

Air Quality

  Air Quality AQ Index Pollutant
Not available.

Snow Depth

Station Depth Elevation

Earthquake Activity

City Distance Mag. Time & Date
Minimum magnitude displayed is 2.5.

Coastal Water Temperatures

Place Temperature

Stations

Nearby Weather Stations

Station Location Temp. Windchill Dew Point Humidity Wind Precip. Elev Updated Type